This is the latest recevied weather packets stored in our database for station/object K5BOU. If no packets are shown the sender has not sent any weather packets the latest 10 day(s).
| Time | Temp. | Humidity | Pressure | Rain* | Wind** | Luminosity | Snow |
|---|---|---|---|---|---|---|---|
| 1788020965 | 31.67° C | 79% | 1016.8 hPa | 0 mm | - | 210 W/m² | - |
| 1788020660 | 32.22° C | 78% | 1016.6 hPa | 0 mm | - | 247 W/m² | - |
| 1788020355 | 31.67° C | 80% | 1016.9 hPa | 0 mm | - | 799 W/m² | - |
| 1788020052 | 31.11° C | 80% | 1016.9 hPa | 0 mm | - | 788 W/m² | - |
| 1788019752 | 30° C | 85% | 1016.8 hPa | 0 mm | - | 788 W/m² | - |
| 1788019451 | 30° C | 85% | 1016.7 hPa | 0 mm | - | 147 W/m² | - |
| 1788019149 | 30° C | 87% | 1016.8 hPa | 0 mm | - | 200 W/m² | - |
| 1788018843 | 30.56° C | 85% | 1016.7 hPa | 0 mm | - | 199 W/m² | - |
| 1788018539 | 31.67° C | 83% | 1017 hPa | 0 mm | - | 772 W/m² | - |
| 1788018237 | 30.56° C | 85% | 1016.8 hPa | 0 mm | - | 745 W/m² | - |
| 1788017934 | 30.56° C | 86% | 1016.8 hPa | 0 mm | - | 741 W/m² | - |
| 1788017642 | 31.11° C | 87% | 1016.7 hPa | 0 mm | - | 719 W/m² | - |
| 1788017326 | 30° C | 89% | 1016.8 hPa | 0 mm | - | 712 W/m² | - |
| 1788017022 | 30.56° C | 89% | 1016.7 hPa | 0 mm | - | 707 W/m² | - |
| 1788016722 | 30.56° C | 89% | 1016.6 hPa | 0 mm | - | 670 W/m² | - |
| 1788016420 | 30° C | 92% | 1016.6 hPa | 0 mm | - | 636 W/m² | - |
| 1788016120 | 29.44° C | 93% | 1016.5 hPa | 0 mm | - | 590 W/m² | - |
| 1788015818 | 29.44° C | 92% | 1016.6 hPa | 0 mm | - | 137 W/m² | - |
| 1788015514 | 29.44° C | 92% | 1016.8 hPa | 0 mm | - | 547 W/m² | - |
| 1788015209 | 30° C | 93% | 1016.6 hPa | 0 mm | - | 474 W/m² | - |
| 1788014907 | 30° C | 93% | 1016.5 hPa | 0 mm | - | 455 W/m² | - |
| 1788014602 | 29.44° C | 94% | 1016.5 hPa | 0 mm | - | 325 W/m² | - |
| 1788014297 | 29.44° C | 94% | 1016.5 hPa | 0 mm | - | 234 W/m² | - |
| 1788013992 | 29.44° C | 93% | 1016.4 hPa | 0 mm | - | 327 W/m² | - |
| 1788013687 | 29.44° C | 91% | 1016.4 hPa | 0 mm | - | 319 W/m² | - |
* Rain latest hour (hover to see other rain measurements)
** Current wind speed in m/s (hover to see current wind gust speed)